Terminal Aerodrome Forecast
Issued by NWS Louisville, KY

Home | Current Version | Previous Version | Text Only | Print | Product List | Glossary On
Versions: 1 2 3 4 5 6 7 8 9 10 11 12 13 14 15 16 17 18
869
FTUS43 KLMK 240528
TAFLEX
TAF
KLEX 240528Z 2406/2506 VRB04KT 5SM BR VCSH BKN005
     FM241000 VRB06KT 3SM -SHRA OVC005
     FM241800 20009KT 5SM -SHRA VCTS OVC018CB
     FM250200 19012G20KT 5SM SHRA VCTS OVC035CB=

USA.gov is the U.S. government's official web portal to all federal, state and local government web resources and services.